createdAt,value
2022-10-11T00:00:36.373Z,55.05
2022-10-11T00:03:03.483Z,55.10
2022-10-11T00:05:30.330Z,53.45
2022-10-11T00:07:57.173Z,61.28
2022-10-11T00:10:24.564Z,50.20
2022-10-11T00:12:52.649Z,53.95
2022-10-11T00:15:21.936Z,53.55
2022-10-11T00:17:48.682Z,53.67
2022-10-11T00:20:15.263Z,51.13
2022-10-11T00:22:42.471Z,51.78
2022-10-11T00:25:10.671Z,56.40
2022-10-11T00:27:37.643Z,56.33
2022-10-11T00:30:08.674Z,50.55
2022-10-11T00:32:37.387Z,57.05
2022-10-11T00:35:06.436Z,55.38
2022-10-11T00:37:38.469Z,58.92
2022-10-11T00:40:13.172Z,57.85
2022-10-11T00:42:40.345Z,55.47
2022-10-11T00:45:31.757Z,59.95
2022-10-11T00:48:09.506Z,57.13
2022-10-11T00:50:36.740Z,57.35
2022-10-11T00:53:09.986Z,56.78
2022-10-11T00:55:41.949Z,57.03
2022-10-11T00:58:09.474Z,62.60
2022-10-11T01:00:36.111Z,59.63
2022-10-11T01:03:04.678Z,60.58
2022-10-11T01:05:31.947Z,54.03
2022-10-11T01:08:02.581Z,56.78
2022-10-11T01:10:29.787Z,59.38
2022-10-11T01:13:24.465Z,63.53
2022-10-11T01:15:57.645Z,58.63
2022-10-11T01:18:27.173Z,60.22
2022-10-11T01:21:38.243Z,56.85
2022-10-11T01:24:26.144Z,54.55
2022-10-11T01:27:17.656Z,60.08
2022-10-11T01:30:02.444Z,54.78
2022-10-11T01:32:31.777Z,59.20
2022-10-11T01:35:12.496Z,58.60
2022-10-11T01:37:43.664Z,57.65
2022-10-11T01:40:17.634Z,67.88
2022-10-11T01:42:45.448Z,57.95
2022-10-11T01:45:16.207Z,62.28
2022-10-11T01:47:42.875Z,71.07
2022-10-11T01:50:31.358Z,58.08
2022-10-11T01:53:01.661Z,67.00
2022-10-11T01:55:39.257Z,62.22
2022-10-11T01:58:15.135Z,64.72
2022-10-11T02:00:47.708Z,63.83
2022-10-11T02:03:17.186Z,59.80
2022-10-11T02:05:49.550Z,68.85
2022-10-11T02:08:47.714Z,56.75
2022-10-11T02:11:20.930Z,64.28
2022-10-11T02:13:57.941Z,66.82
2022-10-11T02:16:33.311Z,57.65
2022-10-11T02:19:04.598Z,64.25
2022-10-11T02:21:34.692Z,63.15
2022-10-11T02:24:05.850Z,58.55
2022-10-11T02:26:34.966Z,61.92
2022-10-11T02:29:05.087Z,68.93
2022-10-11T02:31:35.217Z,55.67
2022-10-11T02:34:07.779Z,60.70
2022-10-11T02:37:04.238Z,63.83
2022-10-11T02:39:47.639Z,63.15
2022-10-11T02:42:19.997Z,58.25
2022-10-11T02:45:06.988Z,62.45
2022-10-11T02:47:34.218Z,55.90
2022-10-11T02:50:01.333Z,60.95
2022-10-11T02:52:28.122Z,62.45
2022-10-11T02:54:54.592Z,60.85
2022-10-11T02:57:21.379Z,55.83
2022-10-11T02:59:47.933Z,56.30
2022-10-11T03:02:14.714Z,67.30
2022-10-11T03:04:41.293Z,61.88
2022-10-11T03:07:07.915Z,57.58
2022-10-11T03:09:35.624Z,52.00
2022-10-11T03:12:02.348Z,64.97
2022-10-11T03:14:28.838Z,64.80
2022-10-11T03:16:55.779Z,55.65
2022-10-11T03:19:24.622Z,59.20
2022-10-11T03:21:51.194Z,58.33
2022-10-11T03:24:17.859Z,65.13
2022-10-11T03:26:44.503Z,59.92
2022-10-11T03:29:11.184Z,63.17
2022-10-11T03:31:37.687Z,58.38
2022-10-11T03:34:04.205Z,61.67
2022-10-11T03:36:30.674Z,62.63
2022-10-11T03:38:57.308Z,63.17
2022-10-11T03:41:23.884Z,58.22
2022-10-11T03:43:50.391Z,63.65
2022-10-11T03:46:17.010Z,57.60
2022-10-11T03:48:43.717Z,57.42
2022-10-11T03:51:11.281Z,54.42
2022-10-11T03:53:37.808Z,64.22
2022-10-11T03:56:08.470Z,60.45
2022-10-11T03:58:35.367Z,67.50
2022-10-11T04:01:01.975Z,63.25
2022-10-11T04:03:28.646Z,60.72
2022-10-11T04:05:55.311Z,64.47
2022-10-11T04:08:21.981Z,66.43
2022-10-11T04:10:49.124Z,65.28
2022-10-11T04:13:15.901Z,67.50
2022-10-11T04:15:42.602Z,55.97
2022-10-11T04:18:09.787Z,64.53
2022-10-11T04:20:36.456Z,69.70
2022-10-11T04:23:03.054Z,60.67
2022-10-11T04:25:29.621Z,70.22
2022-10-11T04:27:56.263Z,59.25
2022-10-11T04:30:23.568Z,65.10
2022-10-11T04:32:50.231Z,59.95
2022-10-11T04:35:16.846Z,67.45
2022-10-11T04:37:43.395Z,55.13
2022-10-11T04:40:10.705Z,60.70
2022-10-11T04:42:37.328Z,59.50
2022-10-11T04:45:06.112Z,65.15
2022-10-11T04:47:32.649Z,67.00
2022-10-11T04:49:59.265Z,56.85
2022-10-11T04:52:26.203Z,61.55
2022-10-11T04:54:52.818Z,59.95
2022-10-11T04:57:19.403Z,60.35
2022-10-11T04:59:50.008Z,57.85
2022-10-11T05:02:17.032Z,57.15
2022-10-11T05:04:43.801Z,58.53
2022-10-11T05:07:10.268Z,61.25
2022-10-11T05:09:36.929Z,56.25
2022-10-11T05:12:03.707Z,59.00
2022-10-11T05:14:30.345Z,61.20
2022-10-11T05:16:58.015Z,61.38
2022-10-11T05:19:25.584Z,63.88
2022-10-11T05:21:52.255Z,56.63
2022-10-11T05:24:18.954Z,64.80
2022-10-11T05:26:45.787Z,66.13
2022-10-11T05:29:12.453Z,57.88
2022-10-11T05:31:39.107Z,58.65
2022-10-11T05:34:05.710Z,70.90
2022-10-11T05:36:32.670Z,74.60
2022-10-11T05:38:59.543Z,64.05
2022-10-11T05:41:26.168Z,58.33
2022-10-11T05:43:52.664Z,67.10
2022-10-11T05:46:19.405Z,58.03
2022-10-11T05:48:46.029Z,57.97
2022-10-11T05:51:12.803Z,64.93
2022-10-11T05:53:40.057Z,64.50
2022-10-11T05:56:19.136Z,62.97
2022-10-11T05:58:45.980Z,59.70
2022-10-11T06:01:26.856Z,66.18
2022-10-11T06:03:53.818Z,60.27
2022-10-11T06:06:20.562Z,61.35
2022-10-11T06:08:48.154Z,71.15
2022-10-11T06:11:25.287Z,61.55
2022-10-11T06:13:57.455Z,62.22
2022-10-11T06:16:25.388Z,57.22
2022-10-11T06:18:57.016Z,67.53
2022-10-11T06:23:55.574Z,61.33
2022-10-11T06:26:25.142Z,57.05
2022-10-11T06:28:52.758Z,66.30
2022-10-11T06:31:19.409Z,62.38
2022-10-11T06:33:46.532Z,63.25
2022-10-11T06:36:14.904Z,59.22
2022-10-11T06:38:44.967Z,59.55
2022-10-11T06:41:24.855Z,60.55
2022-10-11T06:43:51.847Z,60.97
2022-10-11T06:46:20.164Z,63.90
2022-10-11T06:48:51.362Z,56.90
2022-10-11T06:51:20.090Z,64.78
2022-10-11T06:53:57.115Z,63.65
2022-10-11T06:56:25.252Z,58.30
2022-10-11T06:58:56.124Z,58.05
2022-10-11T07:01:24.028Z,61.25
2022-10-11T07:03:52.320Z,55.20
2022-10-11T07:06:25.331Z,59.78
2022-10-11T07:08:52.840Z,56.45
2022-10-11T07:11:23.210Z,61.05
2022-10-11T07:13:56.276Z,60.30
2022-10-11T07:16:23.487Z,59.85
2022-10-11T07:18:58.722Z,61.13
2022-10-11T07:21:26.914Z,61.53
2022-10-11T07:23:53.732Z,65.32
2022-10-11T07:26:20.560Z,61.30
2022-10-11T07:28:47.602Z,64.93
2022-10-11T07:31:17.659Z,64.20
2022-10-11T07:33:44.292Z,63.10
2022-10-11T07:36:11.781Z,61.30
2022-10-11T07:38:43.094Z,55.13
2022-10-11T07:41:10.626Z,69.50
2022-10-11T07:43:38.574Z,59.33
2022-10-11T07:46:06.080Z,56.45
2022-10-11T07:48:34.712Z,62.00
2022-10-11T07:51:06.977Z,58.00
2022-10-11T07:53:39.587Z,58.25
2022-10-11T07:56:07.039Z,56.05
2022-10-11T07:58:34.021Z,58.97
2022-10-11T08:01:00.623Z,60.08
2022-10-11T08:03:27.441Z,55.75
2022-10-11T08:05:54.092Z,62.42
2022-10-11T08:08:20.708Z,48.40
2022-10-11T08:10:47.434Z,62.38
2022-10-11T08:13:15.225Z,47.67
2022-10-11T08:15:41.864Z,55.70
2022-10-11T08:18:08.601Z,56.42
2022-10-11T08:20:37.954Z,55.45
2022-10-11T08:23:05.195Z,55.33
2022-10-11T08:25:31.860Z,57.22
2022-10-11T08:27:58.543Z,54.40
2022-10-11T08:30:25.342Z,57.85
2022-10-11T08:32:52.009Z,62.95
2022-10-11T08:35:18.703Z,61.47
2022-10-11T08:37:45.348Z,53.28
2022-10-11T08:40:16.119Z,54.30
2022-10-11T08:42:48.273Z,51.70
2022-10-11T08:45:39.409Z,53.08
2022-10-11T08:48:33.663Z,44.20
2022-10-11T08:51:01.467Z,58.28
2022-10-11T08:53:55.889Z,51.35
2022-10-11T08:56:26.145Z,47.67
2022-10-11T08:59:21.227Z,51.92
2022-10-11T09:01:54.616Z,51.88
2022-10-11T09:04:21.253Z,54.80
2022-10-11T09:07:08.006Z,55.58
2022-10-11T09:09:50.941Z,53.10
2022-10-11T09:12:41.068Z,59.30
2022-10-11T09:15:29.381Z,50.20
2022-10-11T09:18:13.650Z,54.78
2022-10-11T09:21:02.099Z,52.60
2022-10-11T09:23:43.998Z,53.42
2022-10-11T09:26:13.706Z,56.53
2022-10-11T09:29:01.222Z,49.45
2022-10-11T09:31:32.125Z,52.40
2022-10-11T09:34:06.795Z,48.95
2022-10-11T09:36:54.794Z,50.72
2022-10-11T09:39:34.292Z,57.30
2022-10-11T09:42:11.339Z,53.22
2022-10-11T09:44:37.859Z,48.90
2022-10-11T09:47:06.324Z,45.47
2022-10-11T09:49:42.927Z,58.53
2022-10-11T09:52:21.728Z,53.80
2022-10-11T09:55:00.513Z,56.35
2022-10-11T09:57:34.457Z,49.42
2022-10-11T10:00:21.161Z,55.38
2022-10-11T10:02:54.521Z,54.42
2022-10-11T10:05:27.136Z,49.20
2022-10-11T10:08:05.247Z,52.47
2022-10-11T10:10:40.067Z,51.35
2022-10-11T10:13:22.272Z,48.80
2022-10-11T10:15:53.679Z,45.90
2022-10-11T10:18:30.079Z,48.70
2022-10-11T10:20:59.771Z,49.65
2022-10-11T10:23:30.442Z,47.92
2022-10-11T10:26:17.421Z,53.60
2022-10-11T10:29:10.287Z,58.35
2022-10-11T10:32:02.041Z,51.80
2022-10-11T10:34:36.616Z,55.35
2022-10-11T10:37:15.024Z,46.17
2022-10-11T10:39:59.607Z,44.80
2022-10-11T10:42:26.501Z,46.75
2022-10-11T10:44:55.448Z,54.22
2022-10-11T10:47:47.601Z,46.95
2022-10-11T10:50:27.215Z,46.20
2022-10-11T10:53:05.697Z,49.70
2022-10-11T10:55:39.677Z,53.55
2022-10-11T10:58:27.905Z,43.40
2022-10-11T11:01:02.489Z,47.38
2022-10-11T11:03:42.538Z,49.20
2022-10-11T11:06:49.540Z,44.35
2022-10-11T11:09:31.822Z,50.53
2022-10-11T11:12:23.394Z,41.85
2022-10-11T11:15:13.016Z,44.92
2022-10-11T11:18:05.077Z,43.78
2022-10-11T11:20:49.525Z,45.65
2022-10-11T11:23:48.899Z,43.55
2022-10-11T11:26:30.759Z,51.55
2022-10-11T11:29:31.833Z,38.60
2022-10-11T11:32:20.370Z,45.70
2022-10-11T11:34:53.236Z,44.30
2022-10-11T11:37:22.843Z,38.60
2022-10-11T11:39:53.938Z,41.05
2022-10-11T11:42:30.075Z,36.38
2022-10-11T11:44:57.437Z,31.73
2022-10-11T11:47:31.763Z,37.58
2022-10-11T11:50:03.541Z,46.17
2022-10-11T11:52:37.082Z,43.97
2022-10-11T11:55:14.037Z,43.25
2022-10-11T11:57:52.952Z,52.70
2022-10-11T12:00:22.492Z,36.55
2022-10-11T12:02:53.319Z,37.15
2022-10-11T12:05:23.366Z,41.58
2022-10-11T12:08:31.011Z,40.40
2022-10-11T12:11:01.383Z,36.67
2022-10-11T12:13:39.697Z,35.13
2022-10-11T12:16:06.202Z,36.60
2022-10-11T12:18:41.911Z,36.22
2022-10-11T12:21:36.820Z,37.75
2022-10-11T12:24:21.915Z,36.85
2022-10-11T12:26:54.225Z,42.60
2022-10-11T12:29:43.027Z,34.58
2022-10-11T12:32:11.813Z,35.75
2022-10-11T12:34:42.900Z,37.50
2022-10-11T12:37:18.939Z,39.50
2022-10-11T12:39:56.578Z,34.08
2022-10-11T12:42:37.196Z,32.95
2022-10-11T12:45:14.716Z,36.90
2022-10-11T12:48:04.781Z,28.42
2022-10-11T12:50:37.637Z,30.73
2022-10-11T12:53:31.553Z,28.60
2022-10-11T12:56:26.156Z,33.65
2022-10-11T12:59:02.952Z,39.25
2022-10-11T13:01:36.246Z,42.58
2022-10-11T13:04:11.759Z,44.20
2022-10-11T13:06:49.757Z,34.08
2022-10-11T13:09:33.410Z,39.42
2022-10-11T13:12:18.235Z,33.78
2022-10-11T13:14:48.309Z,41.85
2022-10-11T13:17:25.581Z,35.10
2022-10-11T13:20:09.226Z,27.42
2022-10-11T13:22:39.940Z,37.72
2022-10-11T13:25:08.142Z,29.13
2022-10-11T13:27:37.644Z,29.48
2022-10-11T13:30:11.702Z,38.80
2022-10-11T13:32:38.538Z,43.38
2022-10-11T13:35:14.779Z,39.00
2022-10-11T13:37:45.946Z,34.63
2022-10-11T13:40:18.901Z,35.65
2022-10-11T13:42:48.589Z,34.53
2022-10-11T13:45:25.001Z,34.95
2022-10-11T13:47:54.465Z,37.67
2022-10-11T13:50:32.200Z,37.67
2022-10-11T13:53:04.058Z,31.35
2022-10-11T13:55:33.862Z,29.83
2022-10-11T13:58:03.234Z,35.42
2022-10-11T14:00:39.836Z,41.38
2022-10-11T14:03:15.440Z,41.95
2022-10-11T14:05:53.644Z,36.65
2022-10-11T14:08:58.592Z,26.55
2022-10-11T14:11:36.418Z,37.38
2022-10-11T14:14:34.279Z,45.03
2022-10-11T14:17:09.898Z,40.30
2022-10-11T14:19:36.645Z,34.20
2022-10-11T14:22:12.078Z,43.95
2022-10-11T14:24:38.727Z,47.38
2022-10-11T14:27:06.277Z,39.13
2022-10-11T14:29:36.207Z,35.58
2022-10-11T14:32:10.851Z,43.55
2022-10-11T14:34:38.833Z,32.08
2022-10-11T14:37:05.752Z,31.33
2022-10-11T14:39:33.274Z,32.33
2022-10-11T14:42:00.051Z,36.13
2022-10-11T14:44:26.904Z,33.03
2022-10-11T14:46:54.995Z,29.88
2022-10-11T14:49:25.426Z,28.35
2022-10-11T14:51:53.391Z,30.65
2022-10-11T14:54:23.802Z,32.70
2022-10-11T14:56:55.883Z,34.75
2022-10-11T14:59:25.581Z,34.97
2022-10-11T15:01:53.995Z,35.67
2022-10-11T15:04:26.332Z,35.47
2022-10-11T15:06:54.886Z,32.65
2022-10-11T15:09:21.749Z,25.20
2022-10-11T15:11:50.185Z,36.15
2022-10-11T15:14:17.198Z,29.27
2022-10-11T15:16:44.057Z,36.90
2022-10-11T15:19:23.570Z,36.10
2022-10-11T15:21:50.348Z,38.35
2022-10-11T15:24:19.974Z,40.47
2022-10-11T15:26:47.915Z,28.33
2022-10-11T15:29:17.720Z,32.75
2022-10-11T15:31:44.817Z,31.70
2022-10-11T15:34:11.553Z,32.67
2022-10-11T15:36:38.586Z,27.92
2022-10-11T15:39:23.121Z,25.23
2022-10-11T15:41:49.956Z,22.80
2022-10-11T15:44:16.866Z,26.98
2022-10-11T15:46:43.903Z,35.22
2022-10-11T15:49:17.635Z,29.63
2022-10-11T15:51:44.190Z,22.80
2022-10-11T15:54:10.844Z,28.60
2022-10-11T15:56:37.535Z,32.47
2022-10-11T15:59:04.286Z,30.35
2022-10-11T16:01:31.136Z,31.55
2022-10-11T16:03:57.936Z,34.95
2022-10-11T16:06:24.681Z,41.20
2022-10-11T16:08:51.310Z,37.70
2022-10-11T16:11:18.038Z,38.03
2022-10-11T16:13:45.247Z,37.38
2022-10-11T16:16:12.705Z,30.23
2022-10-11T16:18:39.900Z,39.58
2022-10-11T16:21:10.119Z,28.63
2022-10-11T16:23:37.161Z,31.42
2022-10-11T16:26:08.441Z,31.95
2022-10-11T16:28:36.449Z,28.02
2022-10-11T16:31:08.342Z,31.17
2022-10-11T16:33:35.132Z,27.30
2022-10-11T16:36:26.071Z,26.80
2022-10-11T16:38:52.589Z,28.08
2022-10-11T16:41:19.226Z,27.42
2022-10-11T16:43:45.887Z,29.70
2022-10-11T16:46:12.520Z,23.13
2022-10-11T16:48:39.266Z,25.42
2022-10-11T16:51:07.797Z,23.45
2022-10-11T16:53:35.468Z,25.75
2022-10-11T16:56:13.461Z,24.75
2022-10-11T16:58:40.428Z,28.02
2022-10-11T17:03:44.427Z,32.80
2022-10-11T17:06:11.247Z,26.35
2022-10-11T17:08:38.088Z,28.60
2022-10-11T17:11:09.774Z,37.75
2022-10-11T17:13:38.394Z,35.00
2022-10-11T17:16:06.138Z,37.97
2022-10-11T17:18:55.301Z,31.27
2022-10-11T17:21:24.691Z,30.02
2022-10-11T17:23:54.245Z,34.10
2022-10-11T17:26:28.024Z,33.38
2022-10-11T17:28:59.525Z,36.20
2022-10-11T17:33:56.471Z,34.35
2022-10-11T17:36:32.128Z,25.55
2022-10-11T17:39:03.696Z,31.33
2022-10-11T17:43:59.747Z,33.97
2022-10-11T17:46:28.153Z,31.10
2022-10-11T17:48:55.726Z,29.63
2022-10-11T17:51:22.778Z,37.13
2022-10-11T17:53:53.257Z,41.42
2022-10-11T17:56:28.196Z,28.08
2022-10-11T17:58:57.154Z,39.58
2022-10-11T18:01:26.449Z,33.35
2022-10-11T18:04:02.032Z,30.50
2022-10-11T18:06:32.078Z,28.38
2022-10-11T18:09:04.055Z,26.98
2022-10-11T18:11:31.611Z,24.52
2022-10-11T18:14:01.213Z,26.05
2022-10-11T18:16:30.966Z,27.35
2022-10-11T18:18:59.073Z,32.22
2022-10-11T18:21:33.457Z,35.63
2022-10-11T18:24:13.679Z,30.15
2022-10-11T18:26:40.791Z,32.28
2022-10-11T18:29:09.904Z,25.75
2022-10-11T18:31:36.939Z,29.10
2022-10-11T18:34:05.880Z,27.50
2022-10-11T18:36:33.983Z,28.27
2022-10-11T18:39:06.084Z,35.35
2022-10-11T18:41:40.272Z,30.60
2022-10-11T18:44:28.993Z,28.40
2022-10-11T18:47:01.413Z,34.38
2022-10-11T18:49:28.624Z,35.80
2022-10-11T18:51:55.412Z,31.27
2022-10-11T18:54:24.122Z,32.45
2022-10-11T18:56:52.173Z,39.35
2022-10-11T18:59:26.079Z,31.80
2022-10-11T19:01:55.313Z,43.58
2022-10-11T19:04:22.052Z,35.10
2022-10-11T19:06:49.198Z,35.65
2022-10-11T19:09:21.762Z,34.08
2022-10-11T19:11:53.103Z,42.55
2022-10-11T19:14:25.870Z,39.20
2022-10-11T19:16:53.888Z,38.20
2022-10-11T19:19:24.043Z,37.08
2022-10-11T19:21:50.813Z,30.52
2022-10-11T19:24:19.640Z,38.28
2022-10-11T19:26:47.507Z,36.38
2022-10-11T19:29:19.942Z,34.83
2022-10-11T19:31:52.061Z,41.03
2022-10-11T19:34:19.637Z,33.13
2022-10-11T19:36:46.691Z,35.88
2022-10-11T19:39:15.312Z,42.15
2022-10-11T19:41:42.952Z,32.67
2022-10-11T19:44:16.917Z,40.22
2022-10-11T19:46:51.506Z,39.05
2022-10-11T19:49:21.966Z,35.10
2022-10-11T19:51:49.155Z,36.92
2022-10-11T19:54:17.857Z,40.58
2022-10-11T19:56:50.766Z,37.10
2022-10-11T19:59:18.120Z,30.42
2022-10-11T20:01:51.062Z,35.88
2022-10-11T20:04:51.110Z,39.35
2022-10-11T20:07:07.832Z,36.88
2022-10-11T20:09:35.463Z,42.75
2022-10-11T20:12:03.987Z,41.53
2022-10-11T20:14:31.179Z,39.38
2022-10-11T20:16:58.110Z,42.55
2022-10-11T20:19:30.682Z,48.35
2022-10-11T20:21:58.224Z,46.30
2022-10-11T20:24:27.492Z,45.05
2022-10-11T20:26:55.180Z,43.67
2022-10-11T20:29:24.270Z,43.83
2022-10-11T20:31:52.145Z,47.22
2022-10-11T20:34:18.779Z,43.15
2022-10-11T20:36:49.119Z,43.78
2022-10-11T20:39:16.914Z,41.53
2022-10-11T20:42:15.504Z,42.97
2022-10-11T20:45:15.061Z,44.88
2022-10-11T20:48:03.564Z,48.15
2022-10-11T20:50:35.251Z,46.53
2022-10-11T20:53:18.143Z,44.00
2022-10-11T20:56:47.177Z,37.45
2022-10-11T20:59:45.483Z,43.80
2022-10-11T21:02:43.469Z,41.60
2022-10-11T21:05:26.951Z,39.97
2022-10-11T21:07:53.823Z,38.22
2022-10-11T21:10:20.619Z,41.17
2022-10-11T21:12:47.469Z,39.28
2022-10-11T21:15:14.742Z,41.92
2022-10-11T21:17:41.668Z,35.47
2022-10-11T21:20:08.808Z,40.92
2022-10-11T21:22:36.564Z,38.97
2022-10-11T21:25:06.294Z,44.60
2022-10-11T21:27:33.365Z,37.03
2022-10-11T21:30:00.224Z,37.50
2022-10-11T21:32:27.016Z,41.85
2022-10-11T21:34:53.888Z,35.75
2022-10-11T21:37:20.799Z,36.97
2022-10-11T21:39:47.356Z,39.45
2022-10-11T21:42:14.994Z,43.15
2022-10-11T21:44:43.589Z,37.05
2022-10-11T21:47:12.510Z,44.63
2022-10-11T21:49:39.597Z,41.00
2022-10-11T21:52:09.063Z,43.53
2022-10-11T21:54:35.780Z,43.67
2022-10-11T21:57:02.348Z,47.15
2022-10-11T21:59:29.356Z,46.85
2022-10-11T22:02:00.761Z,40.85
2022-10-11T22:04:29.084Z,41.72
2022-10-11T22:06:55.748Z,42.67
2022-10-11T22:09:22.532Z,48.63
2022-10-11T22:11:49.488Z,35.63
2022-10-11T22:14:16.743Z,41.85
2022-10-11T22:16:43.595Z,48.42
2022-10-11T22:19:10.330Z,46.72
2022-10-11T22:21:40.195Z,41.92
2022-10-11T22:24:10.911Z,49.28
2022-10-11T22:26:37.634Z,37.17
2022-10-11T22:29:04.289Z,43.67
2022-10-11T22:31:32.439Z,52.22
2022-10-11T22:34:00.520Z,37.95
2022-10-11T22:36:28.757Z,35.70
2022-10-11T22:38:55.318Z,36.50
2022-10-11T22:41:22.171Z,40.63
2022-10-11T22:43:48.926Z,39.35
2022-10-11T22:46:15.564Z,37.17
2022-10-11T22:48:42.647Z,44.60
2022-10-11T22:51:09.369Z,42.03
2022-10-11T22:53:36.138Z,39.33
2022-10-11T22:56:03.097Z,42.60
2022-10-11T22:58:29.797Z,41.45
2022-10-11T23:00:56.448Z,41.58
2022-10-11T23:03:24.525Z,46.63
2022-10-11T23:05:57.378Z,41.80
2022-10-11T23:08:24.825Z,38.33
2022-10-11T23:10:52.568Z,41.13
2022-10-11T23:13:20.320Z,45.05
2022-10-11T23:15:47.071Z,39.47
2022-10-11T23:18:16.512Z,38.35
2022-10-11T23:20:43.299Z,41.15
2022-10-11T23:23:09.953Z,41.13
2022-10-11T23:25:36.701Z,46.47
2022-10-11T23:28:03.677Z,41.95
2022-10-11T23:30:30.959Z,40.50
2022-10-11T23:32:57.882Z,33.88
2022-10-11T23:35:24.921Z,44.97
2022-10-11T23:37:54.413Z,42.20
2022-10-11T23:40:21.294Z,40.20
2022-10-11T23:42:48.314Z,39.72
2022-10-11T23:45:15.783Z,37.53
2022-10-11T23:47:42.429Z,41.03
2022-10-11T23:50:09.604Z,50.28
2022-10-11T23:52:36.602Z,39.30
2022-10-11T23:55:04.387Z,39.60
2022-10-11T23:57:31.039Z,41.55
2022-10-11T23:59:57.641Z,38.90
